sensor_id;sensor_type;location;lat;lon;timestamp;temperature;humidity
12700;DHT22;6414;49.570;6.060;2023-04-09T00:02:31;7.70;99.90
12700;DHT22;6414;49.570;6.060;2023-04-09T00:05:17;7.70;99.90
12700;DHT22;6414;49.570;6.060;2023-04-09T00:08:04;7.60;99.90
12700;DHT22;6414;49.570;6.060;2023-04-09T00:10:50;7.60;99.90
12700;DHT22;6414;49.570;6.060;2023-04-09T00:13:36;7.60;99.90
12700;DHT22;6414;49.570;6.060;2023-04-09T00:16:22;7.60;99.90
12700;DHT22;6414;49.570;6.060;2023-04-09T00:19:08;7.60;99.90
12700;DHT22;6414;49.570;6.060;2023-04-09T00:21:54;7.50;99.90
12700;DHT22;6414;49.570;6.060;2023-04-09T00:24:40;7.50;99.90
12700;DHT22;6414;49.570;6.060;2023-04-09T00:27:26;7.40;99.90
12700;DHT22;6414;49.570;6.060;2023-04-09T00:30:12;7.50;99.90
12700;DHT22;6414;49.570;6.060;2023-04-09T00:32:59;7.50;99.90
12700;DHT22;6414;49.570;6.060;2023-04-09T00:35:45;7.50;99.90
12700;DHT22;6414;49.570;6.060;2023-04-09T00:38:31;7.40;99.90
12700;DHT22;6414;49.570;6.060;2023-04-09T00:41:18;7.20;99.90
12700;DHT22;6414;49.570;6.060;2023-04-09T00:44:04;7.20;99.90
12700;DHT22;6414;49.570;6.060;2023-04-09T00:46:51;7.30;99.90
12700;DHT22;6414;49.570;6.060;2023-04-09T00:49:36;7.40;99.90
12700;DHT22;6414;49.570;6.060;2023-04-09T00:52:23;7.40;99.90
12700;DHT22;6414;49.570;6.060;2023-04-09T00:55:09;7.40;99.90
12700;DHT22;6414;49.570;6.060;2023-04-09T00:57:55;7.40;99.90
12700;DHT22;6414;49.570;6.060;2023-04-09T01:00:42;7.40;99.90
12700;DHT22;6414;49.570;6.060;2023-04-09T01:03:28;7.40;99.90
12700;DHT22;6414;49.570;6.060;2023-04-09T01:06:20;7.40;99.90
12700;DHT22;6414;49.570;6.060;2023-04-09T01:09:06;7.30;99.90
12700;DHT22;6414;49.570;6.060;2023-04-09T01:12:08;7.30;99.90
12700;DHT22;6414;49.570;6.060;2023-04-09T01:14:58;7.20;99.90
12700;DHT22;6414;49.570;6.060;2023-04-09T01:17:47;7.30;99.90
12700;DHT22;6414;49.570;6.060;2023-04-09T01:20:38;7.30;99.90
12700;DHT22;6414;49.570;6.060;2023-04-09T01:26:49;7.20;99.90
12700;DHT22;6414;49.570;6.060;2023-04-09T01:29:32;7.00;99.90
12700;DHT22;6414;49.570;6.060;2023-04-09T01:32:17;7.00;99.90
12700;DHT22;6414;49.570;6.060;2023-04-09T01:35:03;7.00;99.90
12700;DHT22;6414;49.570;6.060;2023-04-09T01:37:49;7.00;99.90
12700;DHT22;6414;49.570;6.060;2023-04-09T01:40:35;7.00;99.90
12700;DHT22;6414;49.570;6.060;2023-04-09T01:43:21;7.00;99.90
12700;DHT22;6414;49.570;6.060;2023-04-09T01:46:08;6.90;99.90
12700;DHT22;6414;49.570;6.060;2023-04-09T01:48:55;6.90;99.90
12700;DHT22;6414;49.570;6.060;2023-04-09T01:51:41;6.90;99.90
12700;DHT22;6414;49.570;6.060;2023-04-09T01:54:27;6.90;99.90
12700;DHT22;6414;49.570;6.060;2023-04-09T01:57:15;6.90;99.90
12700;DHT22;6414;49.570;6.060;2023-04-09T02:00:01;6.90;99.90
12700;DHT22;6414;49.570;6.060;2023-04-09T02:03:07;6.90;99.90
12700;DHT22;6414;49.570;6.060;2023-04-09T02:05:56;6.90;99.90
12700;DHT22;6414;49.570;6.060;2023-04-09T02:08:45;6.80;99.90
12700;DHT22;6414;49.570;6.060;2023-04-09T02:11:31;6.80;99.90
12700;DHT22;6414;49.570;6.060;2023-04-09T02:14:17;6.80;99.90
12700;DHT22;6414;49.570;6.060;2023-04-09T02:17:03;6.80;99.90
12700;DHT22;6414;49.570;6.060;2023-04-09T02:19:49;6.70;99.90
12700;DHT22;6414;49.570;6.060;2023-04-09T02:22:35;6.70;99.90
12700;DHT22;6414;49.570;6.060;2023-04-09T02:25:22;6.70;99.90
12700;DHT22;6414;49.570;6.060;2023-04-09T02:28:08;6.70;99.90
12700;DHT22;6414;49.570;6.060;2023-04-09T02:33:25;6.60;99.90
12700;DHT22;6414;49.570;6.060;2023-04-09T02:36:11;6.60;99.90
12700;DHT22;6414;49.570;6.060;2023-04-09T02:39:00;6.60;99.90
12700;DHT22;6414;49.570;6.060;2023-04-09T02:41:46;6.60;99.90
12700;DHT22;6414;49.570;6.060;2023-04-09T02:44:32;6.50;99.90
12700;DHT22;6414;49.570;6.060;2023-04-09T02:47:19;6.40;99.90
12700;DHT22;6414;49.570;6.060;2023-04-09T02:50:05;6.40;99.90
12700;DHT22;6414;49.570;6.060;2023-04-09T02:52:51;6.40;99.90
12700;DHT22;6414;49.570;6.060;2023-04-09T02:55:37;6.40;99.90
12700;DHT22;6414;49.570;6.060;2023-04-09T02:58:24;6.00;99.90
12700;DHT22;6414;49.570;6.060;2023-04-09T03:01:10;6.00;99.90
12700;DHT22;6414;49.570;6.060;2023-04-09T03:03:56;5.80;99.90
12700;DHT22;6414;49.570;6.060;2023-04-09T03:06:42;5.70;99.90
12700;DHT22;6414;49.570;6.060;2023-04-09T03:09:29;5.90;99.90
12700;DHT22;6414;49.570;6.060;2023-04-09T03:12:15;6.10;99.90
12700;DHT22;6414;49.570;6.060;2023-04-09T03:15:01;6.20;99.90
12700;DHT22;6414;49.570;6.060;2023-04-09T03:17:47;6.20;99.90
12700;DHT22;6414;49.570;6.060;2023-04-09T03:20:36;6.20;99.90
12700;DHT22;6414;49.570;6.060;2023-04-09T03:23:19;6.20;99.90
12700;DHT22;6414;49.570;6.060;2023-04-09T03:26:05;6.20;99.90
12700;DHT22;6414;49.570;6.060;2023-04-09T03:28:51;6.20;99.90
12700;DHT22;6414;49.570;6.060;2023-04-09T03:31:37;6.20;99.90
12700;DHT22;6414;49.570;6.060;2023-04-09T03:34:24;6.10;99.90
12700;DHT22;6414;49.570;6.060;2023-04-09T03:37:10;6.10;99.90
12700;DHT22;6414;49.570;6.060;2023-04-09T03:39:56;6.10;99.90
12700;DHT22;6414;49.570;6.060;2023-04-09T03:42:42;6.10;99.90
12700;DHT22;6414;49.570;6.060;2023-04-09T03:45:28;6.00;99.90
12700;DHT22;6414;49.570;6.060;2023-04-09T03:48:15;5.90;99.90
12700;DHT22;6414;49.570;6.060;2023-04-09T03:51:02;5.90;99.90
12700;DHT22;6414;49.570;6.060;2023-04-09T03:53:48;5.90;99.90
12700;DHT22;6414;49.570;6.060;2023-04-09T03:56:34;5.90;99.90
12700;DHT22;6414;49.570;6.060;2023-04-09T03:59:21;5.90;99.90
12700;DHT22;6414;49.570;6.060;2023-04-09T04:02:06;5.70;99.90
12700;DHT22;6414;49.570;6.060;2023-04-09T04:04:53;5.40;99.90
12700;DHT22;6414;49.570;6.060;2023-04-09T04:07:39;5.10;99.90
12700;DHT22;6414;49.570;6.060;2023-04-09T04:10:25;4.80;99.90
12700;DHT22;6414;49.570;6.060;2023-04-09T04:13:12;4.80;99.90
12700;DHT22;6414;49.570;6.060;2023-04-09T04:15:58;4.80;99.90
12700;DHT22;6414;49.570;6.060;2023-04-09T04:18:44;4.80;99.90
12700;DHT22;6414;49.570;6.060;2023-04-09T04:21:31;4.90;99.90
12700;DHT22;6414;49.570;6.060;2023-04-09T04:24:17;4.90;99.90
12700;DHT22;6414;49.570;6.060;2023-04-09T04:27:03;4.90;99.90
12700;DHT22;6414;49.570;6.060;2023-04-09T04:29:50;5.00;99.90
12700;DHT22;6414;49.570;6.060;2023-04-09T04:32:36;5.00;99.90
12700;DHT22;6414;49.570;6.060;2023-04-09T04:35:22;5.00;99.90
12700;DHT22;6414;49.570;6.060;2023-04-09T04:38:08;5.10;99.90
12700;DHT22;6414;49.570;6.060;2023-04-09T04:40:55;4.70;99.90
12700;DHT22;6414;49.570;6.060;2023-04-09T04:43:41;4.70;99.90
12700;DHT22;6414;49.570;6.060;2023-04-09T04:46:27;4.40;99.90
12700;DHT22;6414;49.570;6.060;2023-04-09T04:49:13;4.50;99.90
12700;DHT22;6414;49.570;6.060;2023-04-09T04:51:59;4.60;99.90
12700;DHT22;6414;49.570;6.060;2023-04-09T04:54:45;4.70;99.90
12700;DHT22;6414;49.570;6.060;2023-04-09T04:57:30;4.70;99.90
12700;DHT22;6414;49.570;6.060;2023-04-09T05:00:16;4.70;99.90
12700;DHT22;6414;49.570;6.060;2023-04-09T05:03:02;4.70;99.90
12700;DHT22;6414;49.570;6.060;2023-04-09T05:05:49;4.70;99.90
12700;DHT22;6414;49.570;6.060;2023-04-09T05:08:35;4.70;99.90
12700;DHT22;6414;49.570;6.060;2023-04-09T05:11:21;4.70;99.90
12700;DHT22;6414;49.570;6.060;2023-04-09T05:14:08;4.60;99.90
12700;DHT22;6414;49.570;6.060;2023-04-09T05:16:54;4.70;99.90
12700;DHT22;6414;49.570;6.060;2023-04-09T05:19:41;4.60;99.90
12700;DHT22;6414;49.570;6.060;2023-04-09T05:22:28;4.40;99.90
12700;DHT22;6414;49.570;6.060;2023-04-09T05:25:14;4.40;99.90
12700;DHT22;6414;49.570;6.060;2023-04-09T05:28:00;4.50;99.90
12700;DHT22;6414;49.570;6.060;2023-04-09T05:30:46;4.50;99.90
12700;DHT22;6414;49.570;6.060;2023-04-09T05:33:32;4.60;99.90
12700;DHT22;6414;49.570;6.060;2023-04-09T05:36:18;4.60;99.90
12700;DHT22;6414;49.570;6.060;2023-04-09T05:39:04;4.80;99.90
12700;DHT22;6414;49.570;6.060;2023-04-09T05:41:51;5.00;99.90
12700;DHT22;6414;49.570;6.060;2023-04-09T05:44:37;5.00;99.90
12700;DHT22;6414;49.570;6.060;2023-04-09T05:47:24;5.00;99.90
12700;DHT22;6414;49.570;6.060;2023-04-09T05:50:10;4.90;99.90
12700;DHT22;6414;49.570;6.060;2023-04-09T05:52:56;5.00;99.90
12700;DHT22;6414;49.570;6.060;2023-04-09T05:55:42;5.00;99.90
12700;DHT22;6414;49.570;6.060;2023-04-09T05:58:29;5.10;99.90
12700;DHT22;6414;49.570;6.060;2023-04-09T06:01:15;5.10;99.90
12700;DHT22;6414;49.570;6.060;2023-04-09T06:04:01;5.10;99.90
12700;DHT22;6414;49.570;6.060;2023-04-09T06:06:47;5.10;99.90
12700;DHT22;6414;49.570;6.060;2023-04-09T06:09:33;5.00;99.90
12700;DHT22;6414;49.570;6.060;2023-04-09T06:12:20;5.10;99.90
12700;DHT22;6414;49.570;6.060;2023-04-09T06:15:07;5.20;99.90
12700;DHT22;6414;49.570;6.060;2023-04-09T06:17:53;5.20;99.90
12700;DHT22;6414;49.570;6.060;2023-04-09T06:20:39;5.30;99.90
12700;DHT22;6414;49.570;6.060;2023-04-09T06:23:25;5.50;99.90
12700;DHT22;6414;49.570;6.060;2023-04-09T06:26:12;5.60;99.90
12700;DHT22;6414;49.570;6.060;2023-04-09T06:28:58;5.50;99.90
12700;DHT22;6414;49.570;6.060;2023-04-09T06:31:44;5.20;99.90
12700;DHT22;6414;49.570;6.060;2023-04-09T06:34:31;5.30;99.90
12700;DHT22;6414;49.570;6.060;2023-04-09T06:37:17;5.30;99.90
12700;DHT22;6414;49.570;6.060;2023-04-09T06:40:04;5.40;99.90
12700;DHT22;6414;49.570;6.060;2023-04-09T06:42:50;5.40;99.90
12700;DHT22;6414;49.570;6.060;2023-04-09T06:45:37;5.40;99.90
12700;DHT22;6414;49.570;6.060;2023-04-09T06:48:23;5.50;99.90
12700;DHT22;6414;49.570;6.060;2023-04-09T06:51:09;5.60;99.90
12700;DHT22;6414;49.570;6.060;2023-04-09T06:53:55;5.80;99.90
12700;DHT22;6414;49.570;6.060;2023-04-09T06:56:41;6.10;99.90
12700;DHT22;6414;49.570;6.060;2023-04-09T06:59:27;6.40;99.90
12700;DHT22;6414;49.570;6.060;2023-04-09T07:02:13;6.70;99.90
12700;DHT22;6414;49.570;6.060;2023-04-09T07:04:59;7.00;99.90
12700;DHT22;6414;49.570;6.060;2023-04-09T07:07:45;7.00;99.90
12700;DHT22;6414;49.570;6.060;2023-04-09T07:10:32;7.20;99.90
12700;DHT22;6414;49.570;6.060;2023-04-09T07:13:18;7.10;99.90
12700;DHT22;6414;49.570;6.060;2023-04-09T07:16:05;7.60;99.90
12700;DHT22;6414;49.570;6.060;2023-04-09T07:18:51;7.60;99.90
12700;DHT22;6414;49.570;6.060;2023-04-09T07:21:37;7.70;99.90
12700;DHT22;6414;49.570;6.060;2023-04-09T07:24:23;7.80;99.90
12700;DHT22;6414;49.570;6.060;2023-04-09T07:27:10;8.00;99.90
12700;DHT22;6414;49.570;6.060;2023-04-09T07:29:57;8.10;99.90
12700;DHT22;6414;49.570;6.060;2023-04-09T07:32:44;8.10;99.90
12700;DHT22;6414;49.570;6.060;2023-04-09T07:35:30;8.20;99.90
12700;DHT22;6414;49.570;6.060;2023-04-09T07:38:17;8.30;99.90
12700;DHT22;6414;49.570;6.060;2023-04-09T07:41:04;8.20;99.90
12700;DHT22;6414;49.570;6.060;2023-04-09T07:43:50;8.60;99.90
12700;DHT22;6414;49.570;6.060;2023-04-09T07:46:36;8.80;99.90
12700;DHT22;6414;49.570;6.060;2023-04-09T07:49:23;8.90;99.90
12700;DHT22;6414;49.570;6.060;2023-04-09T07:52:09;8.90;99.90
12700;DHT22;6414;49.570;6.060;2023-04-09T07:54:55;9.00;99.90
12700;DHT22;6414;49.570;6.060;2023-04-09T07:57:41;9.00;99.90
12700;DHT22;6414;49.570;6.060;2023-04-09T08:00:27;9.10;99.90
12700;DHT22;6414;49.570;6.060;2023-04-09T08:03:14;9.20;99.90
12700;DHT22;6414;49.570;6.060;2023-04-09T08:06:01;9.20;99.90
12700;DHT22;6414;49.570;6.060;2023-04-09T08:08:47;9.20;99.90
12700;DHT22;6414;49.570;6.060;2023-04-09T08:11:33;9.30;99.90
12700;DHT22;6414;49.570;6.060;2023-04-09T08:14:19;9.10;99.90
12700;DHT22;6414;49.570;6.060;2023-04-09T08:17:06;9.60;99.90
12700;DHT22;6414;49.570;6.060;2023-04-09T08:19:52;9.80;99.90
12700;DHT22;6414;49.570;6.060;2023-04-09T08:22:38;9.80;99.90
12700;DHT22;6414;49.570;6.060;2023-04-09T08:25:24;9.70;99.90
12700;DHT22;6414;49.570;6.060;2023-04-09T08:28:11;10.00;99.90
12700;DHT22;6414;49.570;6.060;2023-04-09T08:30:57;10.10;99.90
12700;DHT22;6414;49.570;6.060;2023-04-09T08:33:43;10.20;99.90
12700;DHT22;6414;49.570;6.060;2023-04-09T08:36:29;10.40;99.90
12700;DHT22;6414;49.570;6.060;2023-04-09T08:39:15;10.30;99.90
12700;DHT22;6414;49.570;6.060;2023-04-09T08:42:01;10.40;99.90
12700;DHT22;6414;49.570;6.060;2023-04-09T08:44:48;10.30;99.90
12700;DHT22;6414;49.570;6.060;2023-04-09T08:47:34;10.60;99.90
12700;DHT22;6414;49.570;6.060;2023-04-09T08:50:20;10.90;99.90
12700;DHT22;6414;49.570;6.060;2023-04-09T08:53:07;10.90;99.90
12700;DHT22;6414;49.570;6.060;2023-04-09T08:55:52;10.90;99.90
12700;DHT22;6414;49.570;6.060;2023-04-09T08:58:41;11.10;99.90
12700;DHT22;6414;49.570;6.060;2023-04-09T09:01:27;11.10;99.90
12700;DHT22;6414;49.570;6.060;2023-04-09T09:04:12;11.50;99.90
12700;DHT22;6414;49.570;6.060;2023-04-09T09:07:04;11.60;99.90
12700;DHT22;6414;49.570;6.060;2023-04-09T09:09:51;11.70;56.00
12700;DHT22;6414;49.570;6.060;2023-04-09T09:12:37;12.20;79.10
12700;DHT22;6414;49.570;6.060;2023-04-09T09:15:27;12.50;1.00
12700;DHT22;6414;49.570;6.060;2023-04-09T09:18:12;12.50;1.00
12700;DHT22;6414;49.570;6.060;2023-04-09T09:21:12;12.70;1.00
12700;DHT22;6414;49.570;6.060;2023-04-09T09:23:55;12.60;1.00
12700;DHT22;6414;49.570;6.060;2023-04-09T09:26:41;13.30;1.00
12700;DHT22;6414;49.570;6.060;2023-04-09T09:29:28;12.20;1.00
12700;DHT22;6414;49.570;6.060;2023-04-09T09:32:14;12.10;1.00
12700;DHT22;6414;49.570;6.060;2023-04-09T09:35:04;12.30;99.90
12700;DHT22;6414;49.570;6.060;2023-04-09T09:37:59;12.60;1.00
12700;DHT22;6414;49.570;6.060;2023-04-09T09:40:35;13.00;99.90
12700;DHT22;6414;49.570;6.060;2023-04-09T09:43:21;13.30;99.90
12700;DHT22;6414;49.570;6.060;2023-04-09T09:46:09;14.00;99.90
12700;DHT22;6414;49.570;6.060;2023-04-09T09:48:56;13.70;1.00
12700;DHT22;6414;49.570;6.060;2023-04-09T09:51:42;13.60;1.00
12700;DHT22;6414;49.570;6.060;2023-04-09T09:54:30;14.00;1.00
12700;DHT22;6414;49.570;6.060;2023-04-09T09:57:16;14.70;99.90
12700;DHT22;6414;49.570;6.060;2023-04-09T10:00:02;14.60;99.90
12700;DHT22;6414;49.570;6.060;2023-04-09T10:02:52;14.90;99.90
12700;DHT22;6414;49.570;6.060;2023-04-09T10:05:34;13.40;94.00
12700;DHT22;6414;49.570;6.060;2023-04-09T10:08:20;13.70;5.30
12700;DHT22;6414;49.570;6.060;2023-04-09T10:11:06;13.60;1.00
12700;DHT22;6414;49.570;6.060;2023-04-09T10:13:55;12.80;99.90
12700;DHT22;6414;49.570;6.060;2023-04-09T10:16:38;14.00;99.90
12700;DHT22;6414;49.570;6.060;2023-04-09T10:19:24;13.20;1.00
12700;DHT22;6414;49.570;6.060;2023-04-09T10:22:11;12.40;1.00
12700;DHT22;6414;49.570;6.060;2023-04-09T10:24:57;12.40;1.00
12700;DHT22;6414;49.570;6.060;2023-04-09T10:27:43;12.30;99.90
12700;DHT22;6414;49.570;6.060;2023-04-09T10:30:33;11.70;99.90
12700;DHT22;6414;49.570;6.060;2023-04-09T10:33:22;11.90;99.90
12700;DHT22;6414;49.570;6.060;2023-04-09T10:36:10;12.10;99.90
12700;DHT22;6414;49.570;6.060;2023-04-09T10:38:56;11.80;1.00
12700;DHT22;6414;49.570;6.060;2023-04-09T10:41:42;11.90;99.90
12700;DHT22;6414;49.570;6.060;2023-04-09T10:44:28;12.00;1.00
12700;DHT22;6414;49.570;6.060;2023-04-09T10:47:29;12.00;1.00
12700;DHT22;6414;49.570;6.060;2023-04-09T10:50:25;11.50;1.00
12700;DHT22;6414;49.570;6.060;2023-04-09T10:53:24;11.60;99.90
12700;DHT22;6414;49.570;6.060;2023-04-09T10:56:13;12.00;1.00
12700;DHT22;6414;49.570;6.060;2023-04-09T10:58:52;11.90;60.40
12700;DHT22;6414;49.570;6.060;2023-04-09T11:01:38;11.80;90.00
12700;DHT22;6414;49.570;6.060;2023-04-09T11:04:26;12.00;50.30
12700;DHT22;6414;49.570;6.060;2023-04-09T11:07:11;12.30;8.40
12700;DHT22;6414;49.570;6.060;2023-04-09T11:09:57;12.30;9.80
12700;DHT22;6414;49.570;6.060;2023-04-09T11:12:45;12.60;99.90
12700;DHT22;6414;49.570;6.060;2023-04-09T11:15:30;12.50;99.90
12700;DHT22;6414;49.570;6.060;2023-04-09T11:18:26;12.40;99.90
12700;DHT22;6414;49.570;6.060;2023-04-09T11:21:11;12.20;1.00
12700;DHT22;6414;49.570;6.060;2023-04-09T11:23:58;11.70;1.00
12700;DHT22;6414;49.570;6.060;2023-04-09T11:26:45;12.20;1.00
12700;DHT22;6414;49.570;6.060;2023-04-09T11:29:33;12.30;1.00
12700;DHT22;6414;49.570;6.060;2023-04-09T11:32:17;12.30;1.00
12700;DHT22;6414;49.570;6.060;2023-04-09T11:35:03;12.50;1.00
12700;DHT22;6414;49.570;6.060;2023-04-09T11:37:49;12.30;1.00
12700;DHT22;6414;49.570;6.060;2023-04-09T11:40:38;12.60;1.00
12700;DHT22;6414;49.570;6.060;2023-04-09T11:43:23;12.60;1.00
12700;DHT22;6414;49.570;6.060;2023-04-09T11:46:08;13.00;1.00
12700;DHT22;6414;49.570;6.060;2023-04-09T11:48:54;12.30;1.00
12700;DHT22;6414;49.570;6.060;2023-04-09T11:51:41;12.20;1.00
12700;DHT22;6414;49.570;6.060;2023-04-09T11:54:31;12.20;1.00
12700;DHT22;6414;49.570;6.060;2023-04-09T11:57:17;12.20;1.00
12700;DHT22;6414;49.570;6.060;2023-04-09T12:00:07;12.50;1.00
12700;DHT22;6414;49.570;6.060;2023-04-09T12:02:58;12.40;1.00
12700;DHT22;6414;49.570;6.060;2023-04-09T12:05:46;12.40;1.00
12700;DHT22;6414;49.570;6.060;2023-04-09T12:08:29;12.40;1.00
12700;DHT22;6414;49.570;6.060;2023-04-09T12:11:16;12.50;99.90
12700;DHT22;6414;49.570;6.060;2023-04-09T12:14:02;12.70;99.90
12700;DHT22;6414;49.570;6.060;2023-04-09T12:16:52;12.70;1.00
12700;DHT22;6414;49.570;6.060;2023-04-09T12:19:38;12.70;1.00
12700;DHT22;6414;49.570;6.060;2023-04-09T12:22:24;12.70;1.00
12700;DHT22;6414;49.570;6.060;2023-04-09T12:25:10;12.70;99.90
12700;DHT22;6414;49.570;6.060;2023-04-09T12:28:20;12.70;99.90
12700;DHT22;6414;49.570;6.060;2023-04-09T12:31:09;12.70;99.90
12700;DHT22;6414;49.570;6.060;2023-04-09T12:33:55;13.00;99.90
12700;DHT22;6414;49.570;6.060;2023-04-09T12:36:41;12.80;99.90
12700;DHT22;6414;49.570;6.060;2023-04-09T12:39:28;13.00;99.90
12700;DHT22;6414;49.570;6.060;2023-04-09T12:42:14;12.70;99.90
12700;DHT22;6414;49.570;6.060;2023-04-09T12:45:00;12.30;99.90
12700;DHT22;6414;49.570;6.060;2023-04-09T12:47:47;12.50;99.90
12700;DHT22;6414;49.570;6.060;2023-04-09T12:50:34;12.60;1.00
12700;DHT22;6414;49.570;6.060;2023-04-09T12:53:20;12.60;1.00
12700;DHT22;6414;49.570;6.060;2023-04-09T12:56:06;12.80;99.90
12700;DHT22;6414;49.570;6.060;2023-04-09T12:58:52;12.50;99.90
12700;DHT22;6414;49.570;6.060;2023-04-09T13:01:38;12.60;99.90
12700;DHT22;6414;49.570;6.060;2023-04-09T13:04:25;13.10;99.90
12700;DHT22;6414;49.570;6.060;2023-04-09T13:07:11;13.10;99.90
12700;DHT22;6414;49.570;6.060;2023-04-09T13:09:57;12.90;99.90
12700;DHT22;6414;49.570;6.060;2023-04-09T13:12:43;13.10;99.90
12700;DHT22;6414;49.570;6.060;2023-04-09T13:15:29;13.40;99.90
12700;DHT22;6414;49.570;6.060;2023-04-09T13:18:16;13.20;99.90
12700;DHT22;6414;49.570;6.060;2023-04-09T13:21:03;13.40;99.90
12700;DHT22;6414;49.570;6.060;2023-04-09T13:23:50;13.50;99.90
12700;DHT22;6414;49.570;6.060;2023-04-09T13:26:37;13.20;99.90
12700;DHT22;6414;49.570;6.060;2023-04-09T13:29:23;13.20;99.90
12700;DHT22;6414;49.570;6.060;2023-04-09T13:32:09;13.40;99.90
12700;DHT22;6414;49.570;6.060;2023-04-09T13:34:55;13.60;99.90
12700;DHT22;6414;49.570;6.060;2023-04-09T13:37:42;13.20;99.90
12700;DHT22;6414;49.570;6.060;2023-04-09T13:40:29;13.20;99.90
12700;DHT22;6414;49.570;6.060;2023-04-09T13:43:15;13.60;1.00
12700;DHT22;6414;49.570;6.060;2023-04-09T13:46:01;13.50;99.90
12700;DHT22;6414;49.570;6.060;2023-04-09T13:48:47;13.50;99.90
12700;DHT22;6414;49.570;6.060;2023-04-09T13:51:33;13.60;78.70
12700;DHT22;6414;49.570;6.060;2023-04-09T13:54:19;13.40;99.90
12700;DHT22;6414;49.570;6.060;2023-04-09T13:57:06;12.70;99.90
12700;DHT22;6414;49.570;6.060;2023-04-09T13:59:53;13.00;99.90
12700;DHT22;6414;49.570;6.060;2023-04-09T14:02:39;13.10;99.90
12700;DHT22;6414;49.570;6.060;2023-04-09T14:05:25;13.50;99.90
12700;DHT22;6414;49.570;6.060;2023-04-09T14:08:12;13.70;99.90
12700;DHT22;6414;49.570;6.060;2023-04-09T14:10:58;13.60;41.20
12700;DHT22;6414;49.570;6.060;2023-04-09T14:13:44;13.30;92.90
12700;DHT22;6414;49.570;6.060;2023-04-09T14:16:31;13.30;76.80
12700;DHT22;6414;49.570;6.060;2023-04-09T14:19:18;13.50;99.90
12700;DHT22;6414;49.570;6.060;2023-04-09T14:22:04;13.50;99.90
12700;DHT22;6414;49.570;6.060;2023-04-09T14:24:50;13.90;99.90
12700;DHT22;6414;49.570;6.060;2023-04-09T14:27:36;13.80;99.90
12700;DHT22;6414;49.570;6.060;2023-04-09T14:30:22;13.90;2.30
12700;DHT22;6414;49.570;6.060;2023-04-09T14:33:08;13.90;1.00
12700;DHT22;6414;49.570;6.060;2023-04-09T14:35:54;13.80;1.00
12700;DHT22;6414;49.570;6.060;2023-04-09T14:38:40;13.60;1.00
12700;DHT22;6414;49.570;6.060;2023-04-09T14:41:26;13.30;1.00
12700;DHT22;6414;49.570;6.060;2023-04-09T14:44:12;13.50;30.00
12700;DHT22;6414;49.570;6.060;2023-04-09T14:46:59;13.60;1.00
12700;DHT22;6414;49.570;6.060;2023-04-09T14:49:45;13.60;44.10
12700;DHT22;6414;49.570;6.060;2023-04-09T14:52:32;13.60;1.00
12700;DHT22;6414;49.570;6.060;2023-04-09T14:55:18;13.60;1.00
12700;DHT22;6414;49.570;6.060;2023-04-09T14:58:04;13.60;1.00
12700;DHT22;6414;49.570;6.060;2023-04-09T15:00:50;13.20;1.00
12700;DHT22;6414;49.570;6.060;2023-04-09T15:03:36;13.10;1.00
12700;DHT22;6414;49.570;6.060;2023-04-09T15:06:22;12.90;28.50
12700;DHT22;6414;49.570;6.060;2023-04-09T15:09:09;13.00;57.30
12700;DHT22;6414;49.570;6.060;2023-04-09T15:11:54;13.20;70.20
12700;DHT22;6414;49.570;6.060;2023-04-09T15:14:41;13.20;61.10
12700;DHT22;6414;49.570;6.060;2023-04-09T15:17:27;13.30;90.70
12700;DHT22;6414;49.570;6.060;2023-04-09T15:20:13;13.40;55.10
12700;DHT22;6414;49.570;6.060;2023-04-09T15:22:59;13.50;46.90
12700;DHT22;6414;49.570;6.060;2023-04-09T15:25:45;13.60;99.90
12700;DHT22;6414;49.570;6.060;2023-04-09T15:28:31;13.50;80.30
12700;DHT22;6414;49.570;6.060;2023-04-09T15:31:18;13.60;57.60
12700;DHT22;6414;49.570;6.060;2023-04-09T15:34:04;13.60;9.70
12700;DHT22;6414;49.570;6.060;2023-04-09T15:36:50;13.60;49.10
12700;DHT22;6414;49.570;6.060;2023-04-09T15:39:36;13.80;1.00
12700;DHT22;6414;49.570;6.060;2023-04-09T15:42:22;13.50;1.00
12700;DHT22;6414;49.570;6.060;2023-04-09T15:45:09;13.40;1.00
12700;DHT22;6414;49.570;6.060;2023-04-09T15:47:56;13.50;1.00
12700;DHT22;6414;49.570;6.060;2023-04-09T15:50:42;13.20;60.60
12700;DHT22;6414;49.570;6.060;2023-04-09T15:53:29;13.20;59.30
12700;DHT22;6414;49.570;6.060;2023-04-09T15:56:15;13.00;99.90
12700;DHT22;6414;49.570;6.060;2023-04-09T15:59:01;13.00;13.70
12700;DHT22;6414;49.570;6.060;2023-04-09T16:01:46;13.10;99.90
12700;DHT22;6414;49.570;6.060;2023-04-09T16:04:33;13.10;99.90
12700;DHT22;6414;49.570;6.060;2023-04-09T16:07:19;13.20;98.60
12700;DHT22;6414;49.570;6.060;2023-04-09T16:10:05;13.00;62.50
12700;DHT22;6414;49.570;6.060;2023-04-09T16:12:51;13.00;99.90
12700;DHT22;6414;49.570;6.060;2023-04-09T16:15:37;13.00;27.20
12700;DHT22;6414;49.570;6.060;2023-04-09T16:18:24;13.00;39.40
12700;DHT22;6414;49.570;6.060;2023-04-09T16:21:09;12.90;1.00
12700;DHT22;6414;49.570;6.060;2023-04-09T16:24:23;12.90;65.30
12700;DHT22;6414;49.570;6.060;2023-04-09T16:27:11;13.00;1.00
12700;DHT22;6414;49.570;6.060;2023-04-09T16:29:57;13.00;99.90
12700;DHT22;6414;49.570;6.060;2023-04-09T16:32:43;13.00;99.90
12700;DHT22;6414;49.570;6.060;2023-04-09T16:35:29;12.90;1.00
12700;DHT22;6414;49.570;6.060;2023-04-09T16:38:16;12.90;1.00
12700;DHT22;6414;49.570;6.060;2023-04-09T16:41:02;12.90;18.60
12700;DHT22;6414;49.570;6.060;2023-04-09T16:43:49;12.70;99.90
12700;DHT22;6414;49.570;6.060;2023-04-09T16:46:36;12.70;83.10
12700;DHT22;6414;49.570;6.060;2023-04-09T16:49:22;12.80;82.40
12700;DHT22;6414;49.570;6.060;2023-04-09T16:52:08;12.90;31.40
12700;DHT22;6414;49.570;6.060;2023-04-09T16:54:55;12.60;31.10
12700;DHT22;6414;49.570;6.060;2023-04-09T16:57:41;12.60;29.40
12700;DHT22;6414;49.570;6.060;2023-04-09T17:00:28;12.80;13.50
12700;DHT22;6414;49.570;6.060;2023-04-09T17:03:14;12.80;12.50
12700;DHT22;6414;49.570;6.060;2023-04-09T17:06:01;12.80;22.10
12700;DHT22;6414;49.570;6.060;2023-04-09T17:08:47;12.80;21.80
12700;DHT22;6414;49.570;6.060;2023-04-09T17:11:32;12.80;21.10
12700;DHT22;6414;49.570;6.060;2023-04-09T17:14:19;12.70;23.30
12700;DHT22;6414;49.570;6.060;2023-04-09T17:17:05;12.70;9.40
12700;DHT22;6414;49.570;6.060;2023-04-09T17:19:51;12.50;97.20
12700;DHT22;6414;49.570;6.060;2023-04-09T17:22:37;12.40;99.90
12700;DHT22;6414;49.570;6.060;2023-04-09T17:25:23;12.40;99.90
12700;DHT22;6414;49.570;6.060;2023-04-09T17:28:09;12.40;99.90
12700;DHT22;6414;49.570;6.060;2023-04-09T17:30:55;12.30;48.90
12700;DHT22;6414;49.570;6.060;2023-04-09T17:33:43;12.30;97.30
12700;DHT22;6414;49.570;6.060;2023-04-09T17:36:28;12.20;99.90
12700;DHT22;6414;49.570;6.060;2023-04-09T17:39:15;12.20;99.90
12700;DHT22;6414;49.570;6.060;2023-04-09T17:42:01;12.10;99.90
12700;DHT22;6414;49.570;6.060;2023-04-09T17:44:47;11.90;99.90
12700;DHT22;6414;49.570;6.060;2023-04-09T17:47:33;11.90;99.90
12700;DHT22;6414;49.570;6.060;2023-04-09T17:50:19;11.90;99.90
12700;DHT22;6414;49.570;6.060;2023-04-09T17:53:06;12.00;99.90
12700;DHT22;6414;49.570;6.060;2023-04-09T17:55:52;12.00;99.90
12700;DHT22;6414;49.570;6.060;2023-04-09T17:58:38;12.00;99.90
12700;DHT22;6414;49.570;6.060;2023-04-09T18:01:24;11.90;99.90
12700;DHT22;6414;49.570;6.060;2023-04-09T18:04:11;11.90;99.90
12700;DHT22;6414;49.570;6.060;2023-04-09T18:06:58;11.80;99.90